首页
METAR-TAF:

METAR-TAF

机场 :

科马亚瓜, 洪都拉斯

纬度: 14-23N, 经度: 087-37W, 海拔: 628米

当前天气观测

该预报发布于1小时和3分钟前的15:58 UTC
风速11节,风向西北
温度 26°C
湿度 65%
气压 1019 hPa
能见度10公里或以上
散云层高于8000英尺

METAR: MHSC 121558Z 31011KT 9999 SCT080 26/19 A3010 RMK AO2A SLPNO PWINO PNO TSNO VISNO RWY17 $

时间: 11:01 (17:01 UTC)

预报

预报有效从12日的 13点(UTC)到 13日的 19点(UTC)
风速9节,风向西北
能见度10公里或以上
多云层高于6000英尺
成为
从 12日的 14点(UTC)到 12日的 15点(UTC)
风速12节,风向
能见度10公里或以上
散云层高于6000英尺
散云层高于8000英尺
短暂存在
从 12日的 18点(UTC)到 12日的 23点(UTC)
风速15节,风向,有时为20节阵风
成为
从 13日的 01点(UTC)到 13日的 02点(UTC)
风速9节,风向北转西北
能见度10公里或以上
多云层高于5000英尺
成为
从 13日的 05点(UTC)到 13日的 06点(UTC)
风速6节,风向北转西北
能見度: 8000
散云层高于1000英尺
多云层高于4000英尺
轻雾
成为
从 13日的 13点(UTC)到 13日的 14点(UTC)
风速9节,风向北转西北
能见度10公里或以上
散云层高于6000英尺

TAF: MHSC 1213/1319 32009KT 9999 BKN060 QNH3006INS BECMG 1214/1215 35012KT 9999 SCT060 SCT080 QNH2997INS TEMPO 1218/1223 35015G20KT BECMG 1301/1302 33009KT 9999 BKN050 QNH3001INS BECMG 1305/1306 33006KT 8000 BR SCT010 BKN040 QNH3005INS BECMG 1313/1314 34009KT 9999 NSW SCT060 QNH2999INS TX29/1219Z TN19/1311Z

超过4000个机场的气象观测和天气预报(METAR&TAF报告)。

可查询的气象台以黄色和红色小点在地图上表示。

将鼠标移到小点上方,可查看气象台名称。

然后点击查看天气观测和预报。

如需切换地图:点击带黑十字的绿色按钮放大地图;点击带横线的绿色按钮缩小地图;或者点击绿色箭头查看邻近地区的地图。


METAR-TAF: